sensor_id;sensor_type;location;lat;lon;timestamp;pressure;altitude;pressure_sealevel;temperature;humidity
54994;BME280;40891;47.242;8.648;2022-11-15T00:01:20;96242.72;;;7.60;100.00
54994;BME280;40891;47.242;8.648;2022-11-15T00:03:46;96245.94;;;7.59;100.00
54994;BME280;40891;47.242;8.648;2022-11-15T00:06:11;96233.41;;;7.54;100.00
54994;BME280;40891;47.242;8.648;2022-11-15T00:08:37;96232.56;;;7.57;100.00
54994;BME280;40891;47.242;8.648;2022-11-15T00:11:03;96230.53;;;7.57;100.00
54994;BME280;40891;47.242;8.648;2022-11-15T00:13:29;96235.72;;;7.55;100.00
54994;BME280;40891;47.242;8.648;2022-11-15T00:15:59;96238.16;;;7.53;100.00
54994;BME280;40891;47.242;8.648;2022-11-15T00:18:25;96234.47;;;7.44;100.00
54994;BME280;40891;47.242;8.648;2022-11-15T00:20:50;96237.44;;;7.37;100.00
54994;BME280;40891;47.242;8.648;2022-11-15T00:23:16;96228.44;;;7.33;100.00
54994;BME280;40891;47.242;8.648;2022-11-15T00:25:41;96224.66;;;7.27;100.00
54994;BME280;40891;47.242;8.648;2022-11-15T00:28:07;96232.94;;;7.27;100.00
54994;BME280;40891;47.242;8.648;2022-11-15T00:30:32;96224.66;;;7.27;100.00
54994;BME280;40891;47.242;8.648;2022-11-15T00:33:02;96219.44;;;7.29;100.00
54994;BME280;40891;47.242;8.648;2022-11-15T00:35:28;96215.81;;;7.32;100.00
54994;BME280;40891;47.242;8.648;2022-11-15T00:37:53;96218.44;;;7.23;100.00
54994;BME280;40891;47.242;8.648;2022-11-15T00:40:18;96213.00;;;7.19;100.00
54994;BME280;40891;47.242;8.648;2022-11-15T00:42:44;96214.13;;;7.22;100.00
54994;BME280;40891;47.242;8.648;2022-11-15T00:45:09;96217.66;;;7.22;100.00
54994;BME280;40891;47.242;8.648;2022-11-15T00:47:34;96211.00;;;7.20;100.00
54994;BME280;40891;47.242;8.648;2022-11-15T00:50:00;96213.34;;;7.21;100.00
54994;BME280;40891;47.242;8.648;2022-11-15T00:52:25;96212.91;;;7.23;100.00
54994;BME280;40891;47.242;8.648;2022-11-15T00:54:51;96214.72;;;7.29;100.00
54994;BME280;40891;47.242;8.648;2022-11-15T00:57:16;96214.97;;;7.35;100.00
54994;BME280;40891;47.242;8.648;2022-11-15T00:59:41;96214.78;;;7.42;100.00
54994;BME280;40891;47.242;8.648;2022-11-15T01:02:07;96208.47;;;7.41;100.00
54994;BME280;40891;47.242;8.648;2022-11-15T01:04:32;96220.44;;;7.51;100.00
54994;BME280;40891;47.242;8.648;2022-11-15T01:06:57;96210.16;;;7.51;100.00
54994;BME280;40891;47.242;8.648;2022-11-15T01:09:23;96211.28;;;7.54;100.00
54994;BME280;40891;47.242;8.648;2022-11-15T01:11:48;96218.34;;;7.55;100.00
54994;BME280;40891;47.242;8.648;2022-11-15T01:14:14;96213.19;;;7.57;100.00
54994;BME280;40891;47.242;8.648;2022-11-15T01:16:39;96212.22;;;7.64;100.00
54994;BME280;40891;47.242;8.648;2022-11-15T01:19:04;96209.78;;;7.66;100.00
54994;BME280;40891;47.242;8.648;2022-11-15T01:21:30;96196.59;;;7.70;100.00
54994;BME280;40891;47.242;8.648;2022-11-15T01:23:56;96196.59;;;7.70;100.00
54994;BME280;40891;47.242;8.648;2022-11-15T01:26:23;96198.59;;;7.69;100.00
54994;BME280;40891;47.242;8.648;2022-11-15T01:28:49;96191.53;;;7.68;100.00
54994;BME280;40891;47.242;8.648;2022-11-15T01:31:17;96188.41;;;7.66;100.00
54994;BME280;40891;47.242;8.648;2022-11-15T01:33:43;96188.41;;;7.66;100.00
54994;BME280;40891;47.242;8.648;2022-11-15T01:36:12;96178.81;;;7.71;100.00
54994;BME280;40891;47.242;8.648;2022-11-15T01:38:38;96179.47;;;7.75;100.00
54994;BME280;40891;47.242;8.648;2022-11-15T01:41:04;96172.81;;;7.72;100.00
54994;BME280;40891;47.242;8.648;2022-11-15T01:43:34;96167.41;;;7.69;100.00
54994;BME280;40891;47.242;8.648;2022-11-15T01:46:04;96173.28;;;7.71;100.00
54994;BME280;40891;47.242;8.648;2022-11-15T01:48:34;96162.06;;;7.62;100.00
54994;BME280;40891;47.242;8.648;2022-11-15T01:51:03;96161.59;;;7.50;100.00
54994;BME280;40891;47.242;8.648;2022-11-15T01:53:31;96170.00;;;7.47;100.00
54994;BME280;40891;47.242;8.648;2022-11-15T01:55:58;96164.00;;;7.48;100.00
54994;BME280;40891;47.242;8.648;2022-11-15T01:58:26;96163.34;;;7.44;100.00
54994;BME280;40891;47.242;8.648;2022-11-15T02:00:51;96159.34;;;7.45;100.00
54994;BME280;40891;47.242;8.648;2022-11-15T02:03:17;96163.59;;;7.50;100.00
54994;BME280;40891;47.242;8.648;2022-11-15T02:05:43;96155.56;;;7.39;100.00
54994;BME280;40891;47.242;8.648;2022-11-15T02:08:10;96150.69;;;7.31;100.00
54994;BME280;40891;47.242;8.648;2022-11-15T02:10:45;96145.59;;;7.29;100.00
54994;BME280;40891;47.242;8.648;2022-11-15T02:13:10;96143.34;;;7.24;100.00
54994;BME280;40891;47.242;8.648;2022-11-15T02:15:42;96142.59;;;7.24;100.00
54994;BME280;40891;47.242;8.648;2022-11-15T02:18:26;96141.38;;;7.25;100.00
54994;BME280;40891;47.242;8.648;2022-11-15T02:23:50;96141.47;;;7.21;100.00
54994;BME280;40891;47.242;8.648;2022-11-15T02:29:05;96137.94;;;7.21;100.00
54994;BME280;40891;47.242;8.648;2022-11-15T02:34:50;96129.91;;;7.10;100.00
54994;BME280;40891;47.242;8.648;2022-11-15T02:37:39;96121.28;;;7.08;100.00
54994;BME280;40891;47.242;8.648;2022-11-15T02:42:57;96114.81;;;6.99;100.00
54994;BME280;40891;47.242;8.648;2022-11-15T02:45:47;96120.47;;;6.95;100.00
54994;BME280;40891;47.242;8.648;2022-11-15T02:48:14;96117.78;;;6.92;100.00
54994;BME280;40891;47.242;8.648;2022-11-15T02:50:40;96114.22;;;6.91;100.00
54994;BME280;40891;47.242;8.648;2022-11-15T02:53:08;96107.19;;;6.90;100.00
54994;BME280;40891;47.242;8.648;2022-11-15T02:55:36;96109.25;;;6.86;100.00
54994;BME280;40891;47.242;8.648;2022-11-15T03:09:04;96090.59;;;6.90;100.00
54994;BME280;40891;47.242;8.648;2022-11-15T03:11:35;96103.09;;;6.95;100.00
54994;BME280;40891;47.242;8.648;2022-11-15T03:14:22;96098.78;;;6.94;100.00
54994;BME280;40891;47.242;8.648;2022-11-15T03:19:51;96090.41;;;6.97;100.00
54994;BME280;40891;47.242;8.648;2022-11-15T03:22:21;96089.44;;;7.04;100.00
54994;BME280;40891;47.242;8.648;2022-11-15T03:24:52;96101.94;;;7.08;100.00
54994;BME280;40891;47.242;8.648;2022-11-15T03:27:21;96088.78;;;7.12;100.00
54994;BME280;40891;47.242;8.648;2022-11-15T03:29:53;96090.59;;;7.19;100.00
54994;BME280;40891;47.242;8.648;2022-11-15T03:32:25;96089.69;;;7.22;100.00
54994;BME280;40891;47.242;8.648;2022-11-15T03:34:58;96081.78;;;7.24;100.00
54994;BME280;40891;47.242;8.648;2022-11-15T03:37:35;96078.63;;;7.22;100.00
54994;BME280;40891;47.242;8.648;2022-11-15T03:40:03;96077.88;;;7.21;100.00
54994;BME280;40891;47.242;8.648;2022-11-15T03:42:46;96074.22;;;7.24;100.00
54994;BME280;40891;47.242;8.648;2022-11-15T03:45:19;96068.28;;;7.26;100.00
54994;BME280;40891;47.242;8.648;2022-11-15T03:47:54;96071.38;;;7.28;100.00
54994;BME280;40891;47.242;8.648;2022-11-15T03:50:24;96058.75;;;7.27;100.00
54994;BME280;40891;47.242;8.648;2022-11-15T03:52:50;96073.13;;;7.22;100.00
54994;BME280;40891;47.242;8.648;2022-11-15T03:55:18;96081.28;;;7.13;100.00
54994;BME280;40891;47.242;8.648;2022-11-15T03:57:44;96077.31;;;7.14;100.00
54994;BME280;40891;47.242;8.648;2022-11-15T04:00:10;96082.16;;;7.10;100.00
54994;BME280;40891;47.242;8.648;2022-11-15T04:02:36;96078.56;;;6.97;100.00
54994;BME280;40891;47.242;8.648;2022-11-15T04:05:01;96078.88;;;6.86;100.00
54994;BME280;40891;47.242;8.648;2022-11-15T04:07:26;96075.84;;;6.80;100.00
54994;BME280;40891;47.242;8.648;2022-11-15T04:09:52;96070.41;;;6.77;100.00
54994;BME280;40891;47.242;8.648;2022-11-15T04:12:32;96071.38;;;6.70;100.00
54994;BME280;40891;47.242;8.648;2022-11-15T04:15:06;96064.50;;;6.62;100.00
54994;BME280;40891;47.242;8.648;2022-11-15T04:17:32;96070.22;;;6.55;100.00
54994;BME280;40891;47.242;8.648;2022-11-15T04:19:57;96070.97;;;6.56;100.00
54994;BME280;40891;47.242;8.648;2022-11-15T04:22:41;96087.53;;;6.56;100.00
54994;BME280;40891;47.242;8.648;2022-11-15T04:25:25;96084.59;;;6.63;100.00
54994;BME280;40891;47.242;8.648;2022-11-15T04:27:50;96088.13;;;6.63;100.00
54994;BME280;40891;47.242;8.648;2022-11-15T04:30:16;96079.84;;;6.63;100.00
54994;BME280;40891;47.242;8.648;2022-11-15T04:32:41;96060.53;;;6.63;100.00
54994;BME280;40891;47.242;8.648;2022-11-15T04:35:07;96070.38;;;6.64;100.00
54994;BME280;40891;47.242;8.648;2022-11-15T04:37:32;96069.31;;;6.58;100.00
54994;BME280;40891;47.242;8.648;2022-11-15T04:39:57;96074.19;;;6.54;100.00
54994;BME280;40891;47.242;8.648;2022-11-15T04:42:23;96060.91;;;6.49;100.00
54994;BME280;40891;47.242;8.648;2022-11-15T04:44:48;96069.97;;;6.50;100.00
54994;BME280;40891;47.242;8.648;2022-11-15T04:47:13;96070.91;;;6.43;100.00
54994;BME280;40891;47.242;8.648;2022-11-15T04:49:39;96067.44;;;6.39;100.00
54994;BME280;40891;47.242;8.648;2022-11-15T04:52:04;96071.97;;;6.33;100.00
54994;BME280;40891;47.242;8.648;2022-11-15T04:54:29;96071.63;;;6.31;100.00
54994;BME280;40891;47.242;8.648;2022-11-15T04:56:55;96063.84;;;6.26;100.00
54994;BME280;40891;47.242;8.648;2022-11-15T04:59:20;96053.31;;;6.21;100.00
54994;BME280;40891;47.242;8.648;2022-11-15T05:01:45;96057.38;;;6.16;100.00
54994;BME280;40891;47.242;8.648;2022-11-15T05:04:11;96055.06;;;6.15;100.00
54994;BME280;40891;47.242;8.648;2022-11-15T05:06:50;96052.38;;;6.11;100.00
54994;BME280;40891;47.242;8.648;2022-11-15T05:09:17;96046.97;;;6.08;100.00
54994;BME280;40891;47.242;8.648;2022-11-15T05:11:42;96039.72;;;6.14;100.00
54994;BME280;40891;47.242;8.648;2022-11-15T05:14:08;96033.41;;;6.13;100.00
54994;BME280;40891;47.242;8.648;2022-11-15T05:16:34;96039.72;;;6.14;100.00
54994;BME280;40891;47.242;8.648;2022-11-15T05:18:59;96036.94;;;6.14;100.00
54994;BME280;40891;47.242;8.648;2022-11-15T05:21:24;96039.59;;;6.17;100.00
54994;BME280;40891;47.242;8.648;2022-11-15T05:23:50;96043.41;;;6.24;100.00
54994;BME280;40891;47.242;8.648;2022-11-15T05:26:17;96037.03;;;6.27;100.00
54994;BME280;40891;47.242;8.648;2022-11-15T05:28:43;96028.13;;;6.35;100.00
54994;BME280;40891;47.242;8.648;2022-11-15T05:31:11;96023.47;;;6.32;100.00
54994;BME280;40891;47.242;8.648;2022-11-15T05:33:40;96023.13;;;6.30;100.00
54994;BME280;40891;47.242;8.648;2022-11-15T05:38:38;96018.91;;;6.26;100.00
54994;BME280;40891;47.242;8.648;2022-11-15T05:41:04;96012.25;;;6.23;100.00
54994;BME280;40891;47.242;8.648;2022-11-15T05:43:33;96012.78;;;6.18;100.00
54994;BME280;40891;47.242;8.648;2022-11-15T05:46:01;96012.09;;;6.14;100.00
54994;BME280;40891;47.242;8.648;2022-11-15T05:48:28;96013.69;;;6.15;100.00
54994;BME280;40891;47.242;8.648;2022-11-15T05:50:54;96013.50;;;6.22;100.00
54994;BME280;40891;47.242;8.648;2022-11-15T05:53:21;96018.13;;;6.25;100.00
54994;BME280;40891;47.242;8.648;2022-11-15T05:55:48;96012.59;;;6.25;100.00
54994;BME280;40891;47.242;8.648;2022-11-15T05:58:13;96011.84;;;6.25;100.00
54994;BME280;40891;47.242;8.648;2022-11-15T06:00:39;96011.84;;;6.25;100.00
54994;BME280;40891;47.242;8.648;2022-11-15T06:03:04;96010.28;;;6.24;100.00
54994;BME280;40891;47.242;8.648;2022-11-15T06:05:30;96007.19;;;6.22;100.00
54994;BME280;40891;47.242;8.648;2022-11-15T06:07:58;96007.97;;;6.22;100.00
54994;BME280;40891;47.242;8.648;2022-11-15T06:10:24;96012.78;;;6.18;100.00
54994;BME280;40891;47.242;8.648;2022-11-15T06:12:59;96011.25;;;6.17;100.00
54994;BME280;40891;47.242;8.648;2022-11-15T06:15:25;96014.44;;;6.15;100.00
54994;BME280;40891;47.242;8.648;2022-11-15T06:17:51;96009.69;;;6.16;100.00
54994;BME280;40891;47.242;8.648;2022-11-15T06:20:17;96010.47;;;6.16;100.00
54994;BME280;40891;47.242;8.648;2022-11-15T06:22:42;96011.25;;;6.17;100.00
54994;BME280;40891;47.242;8.648;2022-11-15T06:25:07;96011.00;;;6.11;100.00
54994;BME280;40891;47.242;8.648;2022-11-15T06:27:33;96005.13;;;6.09;100.00
54994;BME280;40891;47.242;8.648;2022-11-15T06:29:58;96010.47;;;6.16;100.00
54994;BME280;40891;47.242;8.648;2022-11-15T06:32:23;96002.44;;;6.22;100.00
54994;BME280;40891;47.242;8.648;2022-11-15T06:34:49;96000.09;;;6.21;100.00
54994;BME280;40891;47.242;8.648;2022-11-15T06:37:14;95997.34;;;6.21;100.00
54994;BME280;40891;47.242;8.648;2022-11-15T06:39:40;95999.31;;;6.20;100.00
54994;BME280;40891;47.242;8.648;2022-11-15T06:42:05;95995.72;;;6.23;100.00
54994;BME280;40891;47.242;8.648;2022-11-15T06:44:30;95991.00;;;6.52;100.00
54994;BME280;40891;47.242;8.648;2022-11-15T06:46:56;95997.00;;;6.63;100.00
54994;BME280;40891;47.242;8.648;2022-11-15T06:49:21;95992.84;;;6.71;100.00
54994;BME280;40891;47.242;8.648;2022-11-15T06:51:46;95996.06;;;6.82;100.00
54994;BME280;40891;47.242;8.648;2022-11-15T06:54:12;95997.22;;;6.98;100.00
54994;BME280;40891;47.242;8.648;2022-11-15T06:56:37;95991.94;;;7.16;100.00
54994;BME280;40891;47.242;8.648;2022-11-15T06:59:02;95991.19;;;7.28;100.00
54994;BME280;40891;47.242;8.648;2022-11-15T07:01:28;96000.25;;;7.41;100.00
54994;BME280;40891;47.242;8.648;2022-11-15T07:03:53;95998.50;;;7.47;100.00
54994;BME280;40891;47.242;8.648;2022-11-15T07:06:19;96002.59;;;7.55;100.00
54994;BME280;40891;47.242;8.648;2022-11-15T07:08:44;95998.19;;;7.70;100.00
54994;BME280;40891;47.242;8.648;2022-11-15T07:11:10;95995.09;;;8.40;100.00
54994;BME280;40891;47.242;8.648;2022-11-15T07:13:36;95986.09;;;9.14;100.00
54994;BME280;40891;47.242;8.648;2022-11-15T07:16:03;95976.94;;;9.26;100.00
54994;BME280;40891;47.242;8.648;2022-11-15T07:18:29;95979.47;;;9.11;100.00
54994;BME280;40891;47.242;8.648;2022-11-15T07:20:55;95976.53;;;8.84;100.00
54994;BME280;40891;47.242;8.648;2022-11-15T07:23:20;95979.75;;;8.61;100.00
54994;BME280;40891;47.242;8.648;2022-11-15T07:25:45;95991.31;;;8.47;100.00
54994;BME280;40891;47.242;8.648;2022-11-15T07:28:11;95992.91;;;8.35;100.00
54994;BME280;40891;47.242;8.648;2022-11-15T07:30:36;95991.91;;;8.29;100.00
54994;BME280;40891;47.242;8.648;2022-11-15T07:33:01;95994.13;;;8.21;100.00
54994;BME280;40891;47.242;8.648;2022-11-15T07:35:28;95992.69;;;8.17;100.00
54994;BME280;40891;47.242;8.648;2022-11-15T07:38:01;95987.59;;;8.15;100.00
54994;BME280;40891;47.242;8.648;2022-11-15T07:40:29;95989.38;;;8.09;100.00
54994;BME280;40891;47.242;8.648;2022-11-15T07:43:02;95994.59;;;8.07;100.00
54994;BME280;40891;47.242;8.648;2022-11-15T07:45:28;95993.94;;;8.03;100.00
54994;BME280;40891;47.242;8.648;2022-11-15T07:47:54;95999.56;;;8.12;100.00
54994;BME280;40891;47.242;8.648;2022-11-15T07:50:22;96003.44;;;8.28;100.00
54994;BME280;40891;47.242;8.648;2022-11-15T07:52:53;95991.31;;;8.68;100.00
54994;BME280;40891;47.242;8.648;2022-11-15T07:55:19;95982.88;;;9.68;100.00
54994;BME280;40891;47.242;8.648;2022-11-15T07:57:44;95975.81;;;11.06;91.20
54994;BME280;40891;47.242;8.648;2022-11-15T08:00:10;95964.53;;;12.73;81.39
54994;BME280;40891;47.242;8.648;2022-11-15T08:02:35;95953.25;;;14.49;71.33
54994;BME280;40891;47.242;8.648;2022-11-15T08:05:01;95942.81;;;16.34;61.32
54994;BME280;40891;47.242;8.648;2022-11-15T08:07:29;95933.78;;;18.26;55.73
54994;BME280;40891;47.242;8.648;2022-11-15T08:09:55;95934.16;;;19.32;50.61
54994;BME280;40891;47.242;8.648;2022-11-15T08:12:21;95924.69;;;20.00;47.68
54994;BME280;40891;47.242;8.648;2022-11-15T08:14:46;95925.66;;;19.78;46.11
54994;BME280;40891;47.242;8.648;2022-11-15T08:17:12;95924.28;;;19.14;48.21
54994;BME280;40891;47.242;8.648;2022-11-15T08:19:37;95912.56;;;19.45;48.01
54994;BME280;40891;47.242;8.648;2022-11-15T08:22:02;95913.03;;;18.46;51.10
54994;BME280;40891;47.242;8.648;2022-11-15T08:24:27;95918.16;;;17.31;56.22
54994;BME280;40891;47.242;8.648;2022-11-15T08:26:53;95922.72;;;16.42;59.87
54994;BME280;40891;47.242;8.648;2022-11-15T08:29:18;95926.03;;;16.46;60.84
54994;BME280;40891;47.242;8.648;2022-11-15T08:31:43;95924.47;;;16.39;60.46
54994;BME280;40891;47.242;8.648;2022-11-15T08:34:09;95923.44;;;15.94;62.33
54994;BME280;40891;47.242;8.648;2022-11-15T08:36:34;95928.88;;;15.72;62.38
54994;BME280;40891;47.242;8.648;2022-11-15T08:38:59;95929.88;;;14.72;66.98
54994;BME280;40891;47.242;8.648;2022-11-15T08:41:32;95928.59;;;14.12;71.37
54994;BME280;40891;47.242;8.648;2022-11-15T08:43:58;95934.78;;;13.67;72.50
54994;BME280;40891;47.242;8.648;2022-11-15T08:46:23;95922.09;;;13.22;75.61
54994;BME280;40891;47.242;8.648;2022-11-15T08:48:49;95929.03;;;13.12;77.14
54994;BME280;40891;47.242;8.648;2022-11-15T08:51:15;95929.81;;;13.13;78.03
54994;BME280;40891;47.242;8.648;2022-11-15T08:53:42;95944.38;;;12.93;78.64
54994;BME280;40891;47.242;8.648;2022-11-15T08:56:09;95930.59;;;12.75;80.27
54994;BME280;40891;47.242;8.648;2022-11-15T08:58:35;95925.91;;;12.95;80.70
54994;BME280;40891;47.242;8.648;2022-11-15T09:01:00;95918.16;;;12.76;82.42
54994;BME280;40891;47.242;8.648;2022-11-15T09:03:26;95927.06;;;12.89;81.18
54994;BME280;40891;47.242;8.648;2022-11-15T09:06:00;95933.50;;;12.95;81.78
54994;BME280;40891;47.242;8.648;2022-11-15T09:08:29;95936.41;;;13.01;82.44
54994;BME280;40891;47.242;8.648;2022-11-15T09:10:55;95943.47;;;13.25;80.96
54994;BME280;40891;47.242;8.648;2022-11-15T09:13:21;95937.50;;;13.32;80.15
54994;BME280;40891;47.242;8.648;2022-11-15T09:15:47;95940.97;;;13.27;80.13
54994;BME280;40891;47.242;8.648;2022-11-15T09:18:12;95935.94;;;13.60;78.12
54994;BME280;40891;47.242;8.648;2022-11-15T09:20:37;95940.91;;;13.86;76.61
54994;BME280;40891;47.242;8.648;2022-11-15T09:23:04;95936.91;;;13.57;76.72
54994;BME280;40891;47.242;8.648;2022-11-15T09:25:30;95937.09;;;13.39;78.03
54994;BME280;40891;47.242;8.648;2022-11-15T09:27:55;95942.28;;;13.03;80.35
54994;BME280;40891;47.242;8.648;2022-11-15T09:30:22;95942.13;;;12.82;82.93
54994;BME280;40891;47.242;8.648;2022-11-15T09:32:47;95941.16;;;12.71;83.64
54994;BME280;40891;47.242;8.648;2022-11-15T09:35:13;95946.00;;;12.47;85.12
54994;BME280;40891;47.242;8.648;2022-11-15T09:37:38;95950.91;;;12.28;86.63
54994;BME280;40891;47.242;8.648;2022-11-15T09:40:03;95946.81;;;12.14;87.28
54994;BME280;40891;47.242;8.648;2022-11-15T09:45:12;95953.94;;;11.92;89.11
54994;BME280;40891;47.242;8.648;2022-11-15T09:50:45;95954.22;;;11.94;88.62
54994;BME280;40891;47.242;8.648;2022-11-15T09:53:14;95944.69;;;12.09;89.29
54994;BME280;40891;47.242;8.648;2022-11-15T09:56:01;95937.03;;;12.19;87.84
54994;BME280;40891;47.242;8.648;2022-11-15T09:58:42;95941.88;;;12.18;86.80
54994;BME280;40891;47.242;8.648;2022-11-15T10:01:22;95946.03;;;12.38;87.54
54994;BME280;40891;47.242;8.648;2022-11-15T10:03:56;95950.44;;;12.29;86.65
54994;BME280;40891;47.242;8.648;2022-11-15T10:06:25;95933.88;;;12.50;85.69
54994;BME280;40891;47.242;8.648;2022-11-15T10:09:14;95936.91;;;12.61;83.75
54994;BME280;40891;47.242;8.648;2022-11-15T10:11:41;95918.94;;;13.15;81.93
54994;BME280;40891;47.242;8.648;2022-11-15T10:22:19;95892.59;;;15.32;69.77
54994;BME280;40891;47.242;8.648;2022-11-15T10:24:46;95893.53;;;15.49;70.03
54994;BME280;40891;47.242;8.648;2022-11-15T10:27:18;95893.09;;;15.56;68.89
54994;BME280;40891;47.242;8.648;2022-11-15T10:29:48;95894.06;;;15.27;69.55
54994;BME280;40891;47.242;8.648;2022-11-15T10:32:17;95885.13;;;15.23;70.34
54994;BME280;40891;47.242;8.648;2022-11-15T10:34:43;95886.16;;;14.74;71.55
54994;BME280;40891;47.242;8.648;2022-11-15T10:37:08;95895.00;;;14.47;73.26
54994;BME280;40891;47.242;8.648;2022-11-15T10:39:34;95886.19;;;14.34;75.25
54994;BME280;40891;47.242;8.648;2022-11-15T10:42:22;95895.38;;;13.65;75.71
54994;BME280;40891;47.242;8.648;2022-11-15T10:44:50;95907.03;;;13.49;76.83
54994;BME280;40891;47.242;8.648;2022-11-15T10:47:25;95895.72;;;13.23;79.66
54994;BME280;40891;47.242;8.648;2022-11-15T10:50:03;95897.63;;;13.03;81.11
54994;BME280;40891;47.242;8.648;2022-11-15T10:52:30;95903.34;;;12.70;82.97
54994;BME280;40891;47.242;8.648;2022-11-15T10:55:02;95896.59;;;12.62;84.40
54994;BME280;40891;47.242;8.648;2022-11-15T10:57:38;95904.50;;;12.78;84.54
54994;BME280;40891;47.242;8.648;2022-11-15T11:00:36;95900.56;;;12.70;85.42
54994;BME280;40891;47.242;8.648;2022-11-15T11:03:19;95896.47;;;12.80;84.70
54994;BME280;40891;47.242;8.648;2022-11-15T11:05:47;95890.28;;;12.76;83.17
54994;BME280;40891;47.242;8.648;2022-11-15T11:10:38;95890.56;;;12.78;82.87
54994;BME280;40891;47.242;8.648;2022-11-15T11:13:37;95887.19;;;12.74;83.71
54994;BME280;40891;47.242;8.648;2022-11-15T11:21:14;95870.31;;;13.07;83.18
54994;BME280;40891;47.242;8.648;2022-11-15T11:23:56;95864.16;;;13.17;82.08
54994;BME280;40891;47.242;8.648;2022-11-15T11:26:42;95848.19;;;13.18;81.47
54994;BME280;40891;47.242;8.648;2022-11-15T11:32:00;95852.09;;;13.40;81.05
54994;BME280;40891;47.242;8.648;2022-11-15T11:37:35;95832.25;;;13.38;82.30
54994;BME280;40891;47.242;8.648;2022-11-15T11:40:14;95821.09;;;13.38;80.88
54994;BME280;40891;47.242;8.648;2022-11-15T11:46:21;95817.75;;;13.34;79.10
54994;BME280;40891;47.242;8.648;2022-11-15T11:49:06;95823.13;;;13.23;78.79
54994;BME280;40891;47.242;8.648;2022-11-15T11:51:39;95818.16;;;13.13;79.62
54994;BME280;40891;47.242;8.648;2022-11-15T11:57:40;95806.41;;;12.79;82.84
54994;BME280;40891;47.242;8.648;2022-11-15T12:00:12;95787.56;;;12.60;83.32
54994;BME280;40891;47.242;8.648;2022-11-15T12:02:43;95786.19;;;12.55;83.99
54994;BME280;40891;47.242;8.648;2022-11-15T12:05:24;95787.44;;;12.54;85.70
54994;BME280;40891;47.242;8.648;2022-11-15T12:07:54;95787.34;;;12.49;86.33
54994;BME280;40891;47.242;8.648;2022-11-15T12:10:24;95783.31;;;12.50;87.54
54994;BME280;40891;47.242;8.648;2022-11-15T12:15:41;95767.06;;;12.48;87.69
54994;BME280;40891;47.242;8.648;2022-11-15T12:18:13;95766.84;;;12.22;87.83
54994;BME280;40891;47.242;8.648;2022-11-15T12:20:48;95759.63;;;12.30;88.68
54994;BME280;40891;47.242;8.648;2022-11-15T12:23:28;95763.56;;;12.09;89.00
54994;BME280;40891;47.242;8.648;2022-11-15T12:26:09;95755.03;;;12.27;89.21
54994;BME280;40891;47.242;8.648;2022-11-15T12:28:54;95759.84;;;12.27;89.20
54994;BME280;40891;47.242;8.648;2022-11-15T12:31:27;95758.31;;;12.41;88.20
54994;BME280;40891;47.242;8.648;2022-11-15T12:33:56;95759.25;;;12.38;89.08
54994;BME280;40891;47.242;8.648;2022-11-15T12:39:07;95754.84;;;12.46;88.16
54994;BME280;40891;47.242;8.648;2022-11-15T12:41:42;95757.16;;;12.62;84.88
54994;BME280;40891;47.242;8.648;2022-11-15T12:44:13;95741.97;;;12.63;84.15
54994;BME280;40891;47.242;8.648;2022-11-15T13:02:28;95699.47;;;12.39;82.79
54994;BME280;40891;47.242;8.648;2022-11-15T13:10:43;95678.34;;;12.32;82.77
54994;BME280;40891;47.242;8.648;2022-11-15T13:13:09;95684.19;;;12.19;84.22
54994;BME280;40891;47.242;8.648;2022-11-15T13:18:27;95672.19;;;12.13;86.06
54994;BME280;40891;47.242;8.648;2022-11-15T13:20:53;95664.13;;;12.15;86.14
54994;BME280;40891;47.242;8.648;2022-11-15T13:23:21;95664.13;;;12.15;86.54
54994;BME280;40891;47.242;8.648;2022-11-15T13:26:03;95650.94;;;12.30;86.24
54994;BME280;40891;47.242;8.648;2022-11-15T13:31:17;95638.59;;;12.52;83.91
54994;BME280;40891;47.242;8.648;2022-11-15T13:33:44;95636.28;;;12.65;82.80
54994;BME280;40891;47.242;8.648;2022-11-15T13:36:18;95632.16;;;12.60;82.32
54994;BME280;40891;47.242;8.648;2022-11-15T13:38:44;95626.16;;;12.67;81.30
54994;BME280;40891;47.242;8.648;2022-11-15T13:41:18;95622.06;;;12.63;81.49
54994;BME280;40891;47.242;8.648;2022-11-15T13:43:43;95609.84;;;12.60;82.91
54994;BME280;40891;47.242;8.648;2022-11-15T13:46:16;95613.81;;;12.54;81.30
54994;BME280;40891;47.242;8.648;2022-11-15T13:48:42;95611.03;;;12.54;81.72
54994;BME280;40891;47.242;8.648;2022-11-15T13:51:20;95610.00;;;12.37;82.76
54994;BME280;40891;47.242;8.648;2022-11-15T13:53:56;95605.94;;;12.38;81.19
54994;BME280;40891;47.242;8.648;2022-11-15T13:56:23;95599.69;;;12.28;80.74
54994;BME280;40891;47.242;8.648;2022-11-15T13:58:51;95603.94;;;12.23;81.78
54994;BME280;40891;47.242;8.648;2022-11-15T14:01:19;95590.00;;;12.23;80.38
54994;BME280;40891;47.242;8.648;2022-11-15T14:03:55;95584.25;;;12.12;81.96
54994;BME280;40891;47.242;8.648;2022-11-15T14:06:24;95582.44;;;12.09;82.64
54994;BME280;40891;47.242;8.648;2022-11-15T14:11:24;95579.06;;;12.20;83.45
54994;BME280;40891;47.242;8.648;2022-11-15T14:16:38;95580.53;;;12.15;83.58
54994;BME280;40891;47.242;8.648;2022-11-15T14:19:06;95572.84;;;12.10;81.63
54994;BME280;40891;47.242;8.648;2022-11-15T14:21:32;95583.59;;;12.03;83.00
54994;BME280;40891;47.242;8.648;2022-11-15T14:24:17;95573.34;;;11.94;84.41
54994;BME280;40891;47.242;8.648;2022-11-15T14:26:43;95573.06;;;11.92;85.14
54994;BME280;40891;47.242;8.648;2022-11-15T14:29:28;95575.91;;;11.83;86.51
54994;BME280;40891;47.242;8.648;2022-11-15T14:34:38;95566.88;;;11.88;86.41
54994;BME280;40891;47.242;8.648;2022-11-15T14:37:04;95560.56;;;11.88;85.12
54994;BME280;40891;47.242;8.648;2022-11-15T14:39:29;95559.97;;;11.84;85.45
54994;BME280;40891;47.242;8.648;2022-11-15T14:41:55;95554.41;;;11.84;84.78
54994;BME280;40891;47.242;8.648;2022-11-15T14:44:20;95551.91;;;11.86;85.77
54994;BME280;40891;47.242;8.648;2022-11-15T14:46:46;95546.72;;;11.93;85.07
54994;BME280;40891;47.242;8.648;2022-11-15T14:49:13;95537.31;;;11.91;86.71
54994;BME280;40891;47.242;8.648;2022-11-15T14:51:39;95535.97;;;12.01;86.51